createdAt,value
2018-03-11T00:00:33.474Z,8.44
2018-03-11T00:01:33.512Z,8.44
2018-03-11T00:02:33.524Z,8.39
2018-03-11T00:03:33.549Z,8.49
2018-03-11T00:04:33.575Z,8.46
2018-03-11T00:05:33.590Z,8.41
2018-03-11T00:06:33.620Z,8.52
2018-03-11T00:07:33.649Z,8.35
2018-03-11T00:08:33.665Z,8.44
2018-03-11T00:09:33.689Z,8.49
2018-03-11T00:10:33.765Z,8.45
2018-03-11T00:11:33.750Z,8.50
2018-03-11T00:12:33.776Z,8.53
2018-03-11T00:13:33.790Z,8.42
2018-03-11T00:14:33.822Z,8.45
2018-03-11T00:15:33.834Z,8.39
2018-03-11T00:16:33.854Z,8.35
2018-03-11T00:17:33.875Z,8.34
2018-03-11T00:18:33.907Z,8.44
2018-03-11T00:19:33.934Z,8.42
2018-03-11T00:20:33.957Z,8.36
2018-03-11T00:21:33.973Z,8.45
2018-03-11T00:22:34.008Z,8.45
2018-03-11T00:23:34.019Z,8.42
2018-03-11T00:24:34.049Z,8.28
2018-03-11T00:25:34.098Z,8.36
2018-03-11T00:26:34.095Z,8.35
2018-03-11T00:27:34.115Z,8.52
2018-03-11T00:28:34.148Z,8.49
2018-03-11T00:29:34.164Z,8.45
2018-03-11T00:30:34.189Z,8.35
2018-03-11T00:31:34.206Z,8.49
2018-03-11T00:32:34.242Z,8.41
2018-03-11T00:33:34.258Z,8.46
2018-03-11T00:34:34.305Z,8.45
2018-03-11T00:35:34.303Z,8.36
2018-03-11T00:36:34.826Z,8.39
2018-03-11T00:37:34.353Z,8.39
2018-03-11T00:38:34.377Z,8.53
2018-03-11T00:39:34.400Z,8.46
2018-03-11T00:40:34.436Z,8.42
2018-03-11T00:41:34.444Z,8.50
2018-03-11T00:42:34.467Z,8.42
2018-03-11T00:43:34.574Z,8.49
2018-03-11T00:44:34.528Z,8.46
2018-03-11T00:45:34.549Z,8.49
2018-03-11T00:46:34.637Z,8.49
2018-03-11T00:47:34.602Z,8.53
2018-03-11T00:48:34.610Z,8.49
2018-03-11T00:49:34.691Z,8.52
2018-03-11T00:50:34.654Z,8.49
2018-03-11T00:51:34.683Z,8.54
2018-03-11T00:52:34.709Z,8.52
2018-03-11T00:53:34.753Z,8.53
2018-03-11T00:54:34.751Z,8.49
2018-03-11T00:55:34.784Z,8.44
2018-03-11T00:56:34.795Z,8.45
2018-03-11T00:57:34.921Z,8.49
2018-03-11T00:58:34.844Z,8.53
2018-03-11T00:59:34.875Z,8.49
2018-03-11T01:00:34.897Z,8.59
2018-03-11T01:01:34.916Z,8.54
2018-03-11T01:02:34.936Z,8.57
2018-03-11T01:03:34.965Z,8.53
2018-03-11T01:04:34.990Z,8.56
2018-03-11T01:05:35.008Z,8.53
2018-03-11T01:06:35.037Z,8.52
2018-03-11T01:07:35.059Z,8.52
2018-03-11T01:08:35.089Z,8.53
2018-03-11T01:09:35.110Z,8.57
2018-03-11T01:10:35.140Z,8.46
2018-03-11T01:11:35.152Z,8.45
2018-03-11T01:12:35.176Z,8.45
2018-03-11T01:13:35.206Z,8.45
2018-03-11T01:14:35.226Z,8.49
2018-03-11T01:15:35.259Z,8.49
2018-03-11T01:16:35.273Z,8.54
2018-03-11T01:17:35.294Z,8.56
2018-03-11T01:18:35.325Z,8.52
2018-03-11T01:19:35.351Z,8.53
2018-03-11T01:20:35.372Z,8.52
2018-03-11T01:21:35.384Z,8.50
2018-03-11T01:22:35.410Z,8.54
2018-03-11T01:23:35.441Z,8.56
2018-03-11T01:24:35.462Z,8.60
2018-03-11T01:25:35.478Z,8.63
2018-03-11T01:26:35.513Z,8.61
2018-03-11T01:27:35.571Z,8.64
2018-03-11T01:28:35.554Z,8.72
2018-03-11T01:29:35.576Z,8.71
2018-03-11T01:30:35.608Z,8.63
2018-03-11T01:31:35.630Z,8.71
2018-03-11T01:32:35.656Z,8.69
2018-03-11T01:33:35.736Z,8.52
2018-03-11T01:34:35.694Z,8.52
2018-03-11T01:35:35.769Z,8.49
2018-03-11T01:36:35.744Z,8.42
2018-03-11T01:37:35.764Z,8.45
2018-03-11T01:38:35.789Z,8.49
2018-03-11T01:39:35.815Z,8.44
2018-03-11T01:40:35.861Z,8.46
2018-03-11T01:41:35.862Z,8.53
2018-03-11T01:42:35.884Z,8.45
2018-03-11T01:43:35.908Z,8.45
2018-03-11T01:44:36.035Z,8.45
2018-03-11T01:45:35.965Z,8.41
2018-03-11T01:46:36.016Z,8.45
2018-03-11T01:47:36.001Z,8.45
2018-03-11T01:48:36.026Z,8.45
2018-03-11T01:49:36.049Z,8.39
2018-03-11T01:50:36.068Z,8.49
2018-03-11T01:51:36.108Z,8.45
2018-03-11T01:52:36.121Z,8.49
2018-03-11T01:53:36.148Z,8.36
2018-03-11T01:54:36.163Z,8.26
2018-03-11T01:55:36.313Z,8.32
2018-03-11T01:56:36.215Z,8.39
2018-03-11T01:57:36.838Z,8.32
2018-03-11T01:58:36.266Z,8.36
2018-03-11T01:59:36.283Z,8.39
2018-03-11T02:00:36.306Z,8.39
2018-03-11T02:01:36.349Z,8.45
2018-03-11T02:02:36.358Z,8.45
2018-03-11T02:03:36.375Z,8.46
2018-03-11T02:04:36.410Z,8.42
2018-03-11T02:05:36.452Z,8.44
2018-03-11T02:06:36.449Z,8.28
2018-03-11T02:07:36.470Z,8.31
2018-03-11T02:08:36.497Z,8.39
2018-03-11T02:09:36.528Z,8.26
2018-03-11T02:10:36.549Z,8.26
2018-03-11T02:11:36.573Z,8.09
2018-03-11T02:12:36.596Z,8.27
2018-03-11T02:13:36.614Z,8.17
2018-03-11T02:14:36.653Z,8.26
2018-03-11T02:15:36.669Z,8.23
2018-03-11T02:16:36.682Z,8.24
2018-03-11T02:17:36.705Z,8.23
2018-03-11T02:18:36.737Z,8.21
2018-03-11T02:19:36.748Z,8.23
2018-03-11T02:20:36.795Z,8.24
2018-03-11T02:21:36.808Z,8.24
2018-03-11T02:22:36.825Z,8.18
2018-03-11T02:23:36.852Z,8.21
2018-03-11T02:24:36.881Z,8.24
2018-03-11T02:25:36.892Z,8.31
2018-03-11T02:26:36.922Z,8.23
2018-03-11T02:27:36.944Z,8.21
2018-03-11T02:28:36.966Z,8.26
2018-03-11T02:29:36.989Z,8.31
2018-03-11T02:30:37.022Z,8.28
2018-03-11T02:31:37.035Z,8.27
2018-03-11T02:32:37.088Z,8.32
2018-03-11T02:33:37.094Z,8.31
2018-03-11T02:34:37.105Z,8.24
2018-03-11T02:35:37.154Z,8.27
2018-03-11T02:36:37.159Z,8.28
2018-03-11T02:37:37.172Z,8.31
2018-03-11T02:38:37.209Z,8.18
2018-03-11T02:39:37.235Z,8.13
2018-03-11T02:40:37.244Z,8.16
2018-03-11T02:41:37.271Z,8.09
2018-03-11T02:42:37.306Z,8.16
2018-03-11T02:43:37.320Z,8.06
2018-03-11T02:44:37.337Z,8.14
2018-03-11T02:45:37.364Z,8.11
2018-03-11T02:46:37.392Z,8.05
2018-03-11T02:47:37.412Z,8.03
2018-03-11T02:48:37.448Z,8.03
2018-03-11T02:49:37.464Z,8.05
2018-03-11T02:50:37.478Z,8.08
2018-03-11T02:51:37.506Z,8.13
2018-03-11T02:52:37.536Z,8.17
2018-03-11T02:53:37.552Z,8.23
2018-03-11T02:54:37.588Z,8.26
2018-03-11T02:55:37.599Z,8.27
2018-03-11T02:56:37.617Z,8.32
2018-03-11T02:57:37.644Z,8.26
2018-03-11T02:58:37.712Z,8.34
2018-03-11T02:59:37.689Z,8.31
2018-03-11T03:00:37.714Z,8.26
2018-03-11T03:01:37.753Z,8.14
2018-03-11T03:02:37.770Z,8.28
2018-03-11T03:03:37.793Z,8.21
2018-03-11T03:04:37.805Z,8.24
2018-03-11T03:05:37.850Z,8.27
2018-03-11T03:06:37.853Z,8.17
2018-03-11T03:07:37.936Z,8.24
2018-03-11T03:08:37.908Z,8.16
2018-03-11T03:09:37.928Z,8.05
2018-03-11T03:10:37.950Z,8.16
2018-03-11T03:11:37.969Z,8.14
2018-03-11T03:12:37.994Z,8.13
2018-03-11T03:13:38.033Z,8.14
2018-03-11T03:14:38.039Z,8.13
2018-03-11T03:15:38.063Z,8.17
2018-03-11T03:16:38.093Z,8.18
2018-03-11T03:17:38.123Z,8.11
2018-03-11T03:18:38.140Z,8.09
2018-03-11T03:19:38.172Z,8.17
2018-03-11T03:20:38.182Z,8.13
2018-03-11T03:21:38.199Z,8.17
2018-03-11T03:22:38.229Z,8.24
2018-03-11T03:23:38.258Z,8.16
2018-03-11T03:24:38.279Z,8.23
2018-03-11T03:25:38.308Z,8.21
2018-03-11T03:26:38.326Z,8.16
2018-03-11T03:27:38.359Z,8.17
2018-03-11T03:28:38.378Z,8.17
2018-03-11T03:29:39.344Z,8.20
2018-03-11T03:30:38.420Z,8.18
2018-03-11T03:31:38.463Z,8.20
2018-03-11T03:32:38.470Z,8.13
2018-03-11T03:33:38.502Z,8.17
2018-03-11T03:34:38.511Z,8.26
2018-03-11T03:35:38.533Z,8.21
2018-03-11T03:36:38.565Z,8.16
2018-03-11T03:37:38.580Z,8.18
2018-03-11T03:38:38.613Z,8.17
2018-03-11T03:39:38.634Z,8.27
2018-03-11T03:40:38.652Z,8.23
2018-03-11T03:41:38.677Z,8.14
2018-03-11T03:42:38.708Z,8.11
2018-03-11T03:43:38.723Z,8.09
2018-03-11T03:44:38.745Z,8.13
2018-03-11T03:45:38.766Z,8.14
2018-03-11T03:46:38.796Z,8.20
2018-03-11T03:47:38.813Z,8.11
2018-03-11T03:48:38.838Z,8.13
2018-03-11T03:49:38.856Z,8.16
2018-03-11T03:50:38.919Z,8.20
2018-03-11T03:51:38.907Z,8.16
2018-03-11T03:52:38.925Z,8.17
2018-03-11T03:53:38.951Z,8.05
2018-03-11T03:54:38.995Z,8.17
2018-03-11T03:55:39.009Z,8.01
2018-03-11T03:56:39.018Z,8.06
2018-03-11T03:57:39.038Z,8.09
2018-03-11T03:58:39.069Z,8.09
2018-03-11T03:59:39.087Z,8.03
2018-03-11T04:00:39.109Z,8.13
2018-03-11T04:01:39.137Z,8.05
2018-03-11T04:02:39.163Z,7.99
2018-03-11T04:03:39.195Z,7.95
2018-03-11T04:04:39.201Z,7.96
2018-03-11T04:05:39.232Z,7.88
2018-03-11T04:06:39.251Z,7.87
2018-03-11T04:07:39.277Z,7.88
2018-03-11T04:08:39.324Z,7.81
2018-03-11T04:09:39.331Z,7.87
2018-03-11T04:10:39.354Z,7.87
2018-03-11T04:11:39.379Z,7.83
2018-03-11T04:12:39.393Z,7.80
2018-03-11T04:13:39.418Z,7.70
2018-03-11T04:14:39.451Z,7.70
2018-03-11T04:15:39.463Z,7.72
2018-03-11T04:16:39.491Z,7.72
2018-03-11T04:17:39.506Z,7.69
2018-03-11T04:18:39.538Z,7.69
2018-03-11T04:19:39.567Z,7.62
2018-03-11T04:20:39.574Z,7.59
2018-03-11T04:21:39.600Z,7.59
2018-03-11T04:22:39.628Z,7.59
2018-03-11T04:23:39.646Z,7.59
2018-03-11T04:24:39.670Z,7.58
2018-03-11T04:25:39.698Z,7.66
2018-03-11T04:26:39.719Z,7.59
2018-03-11T04:27:39.742Z,7.58
2018-03-11T04:28:39.787Z,7.61
2018-03-11T04:29:39.792Z,7.58
2018-03-11T04:30:39.816Z,7.59
2018-03-11T04:31:39.838Z,7.62
2018-03-11T04:32:39.850Z,7.62
2018-03-11T04:33:39.893Z,7.69
2018-03-11T04:34:39.898Z,7.55
2018-03-11T04:35:39.932Z,7.59
2018-03-11T04:36:39.946Z,7.56
2018-03-11T04:37:40.116Z,7.61
2018-03-11T04:38:39.999Z,7.69
2018-03-11T04:39:40.026Z,7.74
2018-03-11T04:40:40.044Z,7.70
2018-03-11T04:41:40.076Z,7.67
2018-03-11T04:42:40.089Z,7.70
2018-03-11T04:43:40.112Z,7.72
2018-03-11T04:44:40.132Z,7.70
2018-03-11T04:45:40.153Z,7.74
2018-03-11T04:46:40.180Z,7.66
2018-03-11T04:47:40.216Z,7.72
2018-03-11T04:48:40.852Z,7.64
2018-03-11T04:49:40.263Z,7.69
2018-03-11T04:50:40.280Z,7.74
2018-03-11T04:51:40.311Z,7.69
2018-03-11T04:52:40.318Z,7.70
2018-03-11T04:53:40.341Z,7.69
2018-03-11T04:54:40.365Z,7.75
2018-03-11T04:55:40.388Z,7.69
2018-03-11T04:56:40.405Z,7.62
2018-03-11T04:57:40.431Z,7.74
2018-03-11T04:58:40.449Z,7.66
2018-03-11T04:59:40.477Z,7.74
2018-03-11T05:00:40.505Z,7.81
2018-03-11T05:01:40.552Z,7.59
2018-03-11T05:02:40.550Z,7.69
2018-03-11T05:03:40.582Z,7.67
2018-03-11T05:04:40.589Z,7.69
2018-03-11T05:05:40.611Z,7.58
2018-03-11T05:06:40.646Z,7.72
2018-03-11T05:07:40.663Z,7.72
2018-03-11T05:08:40.686Z,7.56
2018-03-11T05:09:40.714Z,7.66
2018-03-11T05:10:40.729Z,7.69
2018-03-11T05:11:40.752Z,7.74
2018-03-11T05:12:40.789Z,7.55
2018-03-11T05:13:40.798Z,7.64
2018-03-11T05:14:40.824Z,7.69
2018-03-11T05:15:40.846Z,7.66
2018-03-11T05:16:40.877Z,7.74
2018-03-11T05:17:40.888Z,7.69
2018-03-11T05:18:40.917Z,7.64
2018-03-11T05:19:40.940Z,7.59
2018-03-11T05:20:40.959Z,7.70
2018-03-11T05:21:40.988Z,7.61
2018-03-11T05:22:41.009Z,7.56
2018-03-11T05:23:41.029Z,7.67
2018-03-11T05:24:41.055Z,7.59
2018-03-11T05:25:41.081Z,7.48
2018-03-11T05:26:41.097Z,7.43
2018-03-11T05:27:41.121Z,7.40
2018-03-11T05:28:41.147Z,7.48
2018-03-11T05:29:41.164Z,7.48
2018-03-11T05:30:41.197Z,7.53
2018-03-11T05:31:41.228Z,7.58
2018-03-11T05:32:41.239Z,7.56
2018-03-11T05:33:41.265Z,7.58
2018-03-11T05:34:41.289Z,7.59
2018-03-11T05:35:41.309Z,7.64
2018-03-11T05:36:41.328Z,7.44
2018-03-11T05:37:41.349Z,7.43
2018-03-11T05:38:41.387Z,7.55
2018-03-11T05:39:41.399Z,7.58
2018-03-11T05:40:41.417Z,7.58
2018-03-11T05:41:41.451Z,7.58
2018-03-11T05:42:41.473Z,7.48
2018-03-11T05:43:41.498Z,7.40
2018-03-11T05:44:41.511Z,7.43
2018-03-11T05:45:41.531Z,7.59
2018-03-11T05:46:41.553Z,7.55
2018-03-11T05:47:41.629Z,7.43
2018-03-11T05:48:41.610Z,7.44
2018-03-11T05:49:41.629Z,7.47
2018-03-11T05:50:41.665Z,7.47
2018-03-11T05:51:41.678Z,7.56
2018-03-11T05:52:41.693Z,7.58
2018-03-11T05:53:41.716Z,7.50
2018-03-11T05:54:41.738Z,7.61
2018-03-11T05:55:41.766Z,7.47
2018-03-11T05:56:41.785Z,7.56
2018-03-11T05:57:41.819Z,7.59
2018-03-11T05:58:41.831Z,7.62
2018-03-11T05:59:41.856Z,7.55
2018-03-11T06:00:41.902Z,7.62
2018-03-11T06:01:41.896Z,7.61
2018-03-11T06:02:41.928Z,7.59
2018-03-11T06:03:41.980Z,7.64
2018-03-11T06:04:41.981Z,7.66
2018-03-11T06:05:41.986Z,7.72
2018-03-11T06:06:42.027Z,7.61
2018-03-11T06:07:42.032Z,7.69
2018-03-11T06:08:42.059Z,7.66
2018-03-11T06:09:42.081Z,7.59
2018-03-11T06:10:42.120Z,7.61
2018-03-11T06:11:42.136Z,7.62
2018-03-11T06:12:42.148Z,7.55
2018-03-11T06:13:42.198Z,7.59
2018-03-11T06:14:42.198Z,7.69
2018-03-11T06:15:42.218Z,7.56
2018-03-11T06:16:42.239Z,7.64
2018-03-11T06:17:42.283Z,7.56
2018-03-11T06:18:42.286Z,7.58
2018-03-11T06:19:42.305Z,7.59
2018-03-11T06:20:42.344Z,7.67
2018-03-11T06:21:42.364Z,7.56
2018-03-11T06:22:42.382Z,7.50
2018-03-11T06:23:42.417Z,7.59
2018-03-11T06:24:42.452Z,7.66
2018-03-11T06:25:42.466Z,7.58
2018-03-11T06:26:42.475Z,7.69
2018-03-11T06:27:42.491Z,7.61
2018-03-11T06:28:42.513Z,7.67
2018-03-11T06:29:42.535Z,7.72
2018-03-11T06:30:42.561Z,7.81
2018-03-11T06:31:42.592Z,7.83
2018-03-11T06:32:42.618Z,7.75
2018-03-11T06:33:42.641Z,7.77
2018-03-11T06:34:42.681Z,7.88
2018-03-11T06:35:42.692Z,7.91
2018-03-11T06:36:42.708Z,7.90
2018-03-11T06:37:42.733Z,7.88
2018-03-11T06:38:42.742Z,7.91
2018-03-11T06:39:42.778Z,7.90
2018-03-11T06:40:42.789Z,7.91
2018-03-11T06:41:42.815Z,7.88
2018-03-11T06:42:42.842Z,7.98
2018-03-11T06:43:42.870Z,7.93
2018-03-11T06:44:42.908Z,7.95
2018-03-11T06:45:42.902Z,7.98
2018-03-11T06:46:42.931Z,7.99
2018-03-11T06:47:42.970Z,7.95
2018-03-11T06:48:42.980Z,8.02
2018-03-11T06:49:42.995Z,8.02
2018-03-11T06:50:43.032Z,7.93
2018-03-11T06:51:43.042Z,7.96
2018-03-11T06:52:43.077Z,8.06
2018-03-11T06:53:43.106Z,7.99
2018-03-11T06:54:43.125Z,8.02
2018-03-11T06:55:43.135Z,7.98
2018-03-11T06:56:43.170Z,8.05
2018-03-11T06:57:43.197Z,8.08
2018-03-11T06:58:43.221Z,8.08
2018-03-11T06:59:43.231Z,8.14
2018-03-11T07:00:43.252Z,8.06
2018-03-11T07:01:43.291Z,8.24
2018-03-11T07:02:43.296Z,8.17
2018-03-11T07:03:43.360Z,8.18
2018-03-11T07:04:43.345Z,8.23
2018-03-11T07:05:43.375Z,8.32
2018-03-11T07:06:43.386Z,8.28
2018-03-11T07:07:43.417Z,8.21
2018-03-11T07:08:43.444Z,8.27
2018-03-11T07:09:43.478Z,8.26
2018-03-11T07:10:43.500Z,8.28
2018-03-11T07:11:43.510Z,8.41
2018-03-11T07:12:43.525Z,8.41
2018-03-11T07:13:43.568Z,8.39
2018-03-11T07:14:43.588Z,8.50
2018-03-11T07:15:43.611Z,8.50
2018-03-11T07:16:43.620Z,8.45
2018-03-11T07:17:43.644Z,8.44
2018-03-11T07:18:43.668Z,8.39
2018-03-11T07:19:43.695Z,8.44
2018-03-11T07:20:43.724Z,8.52
2018-03-11T07:21:44.372Z,8.57
2018-03-11T07:22:43.779Z,8.52
2018-03-11T07:23:43.817Z,8.59
2018-03-11T07:24:43.810Z,8.53
2018-03-11T07:25:43.833Z,8.57
2018-03-11T07:26:43.854Z,8.57
2018-03-11T07:27:43.877Z,8.56
2018-03-11T07:28:43.920Z,8.66
2018-03-11T07:29:43.957Z,8.64
2018-03-11T07:30:43.952Z,8.71
2018-03-11T07:31:43.976Z,8.63
2018-03-11T07:32:44.014Z,8.77
2018-03-11T07:33:44.019Z,8.74
2018-03-11T07:34:44.067Z,8.74
2018-03-11T07:35:44.072Z,8.69
2018-03-11T07:36:44.084Z,8.75
2018-03-11T07:37:44.115Z,8.71
2018-03-11T07:38:44.146Z,8.72
2018-03-11T07:39:44.166Z,8.79
2018-03-11T07:40:44.192Z,8.82
2018-03-11T07:41:44.227Z,8.79
2018-03-11T07:42:44.234Z,8.86
2018-03-11T07:43:44.306Z,8.86
2018-03-11T07:44:44.295Z,8.95
2018-03-11T07:45:44.319Z,8.95
2018-03-11T07:46:44.327Z,9.02
2018-03-11T07:47:44.364Z,9.03
2018-03-11T07:48:44.375Z,9.03
2018-03-11T07:49:44.400Z,9.15
2018-03-11T07:50:44.422Z,9.21
2018-03-11T07:51:44.469Z,9.21
2018-03-11T07:52:44.473Z,9.31
2018-03-11T07:53:44.512Z,9.26
2018-03-11T07:54:44.544Z,9.29
2018-03-11T07:55:44.548Z,9.22
2018-03-11T07:56:44.558Z,9.34
2018-03-11T07:57:44.586Z,9.31
2018-03-11T07:58:44.608Z,9.44
2018-03-11T07:59:44.644Z,9.52
2018-03-11T08:00:44.661Z,9.49
2018-03-11T08:01:44.679Z,9.47
2018-03-11T08:02:44.710Z,9.49
2018-03-11T08:03:44.730Z,9.67
2018-03-11T08:04:44.750Z,9.62
2018-03-11T08:05:44.775Z,9.66
2018-03-11T08:06:44.802Z,9.69
2018-03-11T08:07:44.826Z,9.82
2018-03-11T08:08:44.850Z,9.80
2018-03-11T08:09:44.880Z,9.77
2018-03-11T08:10:44.893Z,9.74
2018-03-11T08:11:44.930Z,9.81
2018-03-11T08:12:44.954Z,9.82
2018-03-11T08:13:44.970Z,9.81
2018-03-11T08:14:44.992Z,9.85
2018-03-11T08:15:45.043Z,10.00
2018-03-11T08:16:45.037Z,10.02
2018-03-11T08:17:45.078Z,10.21
2018-03-11T08:18:45.109Z,10.23
2018-03-11T08:19:45.135Z,10.15
2018-03-11T08:20:45.134Z,10.33
2018-03-11T08:21:45.165Z,10.39
2018-03-11T08:22:45.186Z,10.53
2018-03-11T08:23:45.207Z,10.49
2018-03-11T08:24:45.248Z,10.51
2018-03-11T08:25:45.253Z,10.55
2018-03-11T08:26:45.292Z,10.62
2018-03-11T08:27:45.306Z,10.59
2018-03-11T08:28:45.331Z,10.65
2018-03-11T08:29:45.358Z,10.76
2018-03-11T08:30:45.377Z,10.76
2018-03-11T08:31:45.401Z,10.79
2018-03-11T08:32:45.434Z,10.79
2018-03-11T08:33:45.455Z,10.94
2018-03-11T08:34:45.491Z,11.00
2018-03-11T08:35:45.499Z,10.98
2018-03-11T08:36:45.555Z,10.98
2018-03-11T08:37:45.548Z,11.12
2018-03-11T08:38:45.570Z,11.16
2018-03-11T08:39:45.607Z,11.15
2018-03-11T08:40:45.635Z,11.31
2018-03-11T08:41:45.646Z,11.31
2018-03-11T08:42:45.715Z,11.30
2018-03-11T08:43:45.707Z,11.26
2018-03-11T08:44:45.730Z,11.37
2018-03-11T08:45:45.747Z,11.38
2018-03-11T08:46:45.776Z,11.44
2018-03-11T08:47:45.804Z,11.51
2018-03-11T08:48:45.820Z,11.45
2018-03-11T08:49:45.850Z,11.49
2018-03-11T08:50:45.869Z,11.48
2018-03-11T08:51:45.891Z,11.52
2018-03-11T08:52:45.913Z,11.60
2018-03-11T08:53:46.004Z,11.60
2018-03-11T08:54:45.964Z,11.60
2018-03-11T08:55:46.000Z,11.63
2018-03-11T08:56:46.009Z,11.71
2018-03-11T08:57:46.047Z,11.76
2018-03-11T08:58:46.060Z,11.78
2018-03-11T08:59:46.098Z,11.86
2018-03-11T09:00:46.122Z,11.86
2018-03-11T09:01:46.143Z,11.88
2018-03-11T09:02:46.169Z,11.91
2018-03-11T09:03:46.192Z,11.99
2018-03-11T09:04:46.232Z,12.00
2018-03-11T09:05:46.242Z,12.00
2018-03-11T09:06:46.265Z,12.03
2018-03-11T09:07:46.290Z,12.15
2018-03-11T09:08:46.319Z,12.21
2018-03-11T09:09:46.341Z,12.12
2018-03-11T09:10:46.369Z,12.26
2018-03-11T09:11:46.389Z,12.21
2018-03-11T09:12:46.417Z,12.37
2018-03-11T09:13:47.380Z,12.40
2018-03-11T09:14:46.469Z,12.43
2018-03-11T09:15:46.576Z,12.58
2018-03-11T09:16:46.532Z,12.54
2018-03-11T09:17:46.543Z,12.54
2018-03-11T09:18:46.580Z,12.62
2018-03-11T09:19:46.603Z,12.73
2018-03-11T09:20:46.615Z,12.86
2018-03-11T09:21:46.643Z,12.90
2018-03-11T09:22:46.684Z,12.94
2018-03-11T09:23:46.694Z,13.03
2018-03-11T09:24:46.720Z,13.19
2018-03-11T09:25:46.753Z,13.19
2018-03-11T09:26:46.810Z,13.36
2018-03-11T09:27:46.808Z,13.54
2018-03-11T09:28:46.840Z,13.64
2018-03-11T09:29:46.859Z,13.93
2018-03-11T09:30:46.893Z,14.36
2018-03-11T09:31:46.900Z,14.68
2018-03-11T09:32:46.940Z,15.63
2018-03-11T09:33:46.953Z,15.90
2018-03-11T09:34:47.023Z,16.28
2018-03-11T09:35:47.009Z,16.17
2018-03-11T09:36:47.040Z,17.30
2018-03-11T09:37:47.068Z,17.16
2018-03-11T09:38:47.101Z,17.13
2018-03-11T09:39:47.113Z,17.14
2018-03-11T09:40:47.142Z,17.87
2018-03-11T09:41:47.170Z,17.07
2018-03-11T09:42:47.200Z,17.14
2018-03-11T09:43:47.231Z,17.46
2018-03-11T09:44:47.255Z,17.13
2018-03-11T09:45:47.289Z,16.82
2018-03-11T09:46:47.313Z,17.09
2018-03-11T09:47:47.334Z,17.84
2018-03-11T09:48:47.372Z,17.98
2018-03-11T09:49:47.397Z,18.28
2018-03-11T09:50:47.424Z,18.68
2018-03-11T09:51:47.461Z,18.06
2018-03-11T09:52:47.488Z,17.73
2018-03-11T09:53:47.533Z,17.80
2018-03-11T09:54:47.544Z,17.54
2018-03-11T09:55:47.588Z,17.84
2018-03-11T09:56:47.608Z,18.18
2018-03-11T09:57:47.651Z,18.30
2018-03-11T09:58:47.685Z,18.61
2018-03-11T09:59:47.706Z,18.70
2018-03-11T10:00:47.738Z,18.79
2018-03-11T10:01:47.765Z,19.41
2018-03-11T10:02:47.788Z,20.42
2018-03-11T10:03:47.874Z,21.04
2018-03-11T10:04:47.849Z,21.25
2018-03-11T10:05:47.900Z,21.00
2018-03-11T10:06:48.025Z,21.01
2018-03-11T10:07:47.948Z,20.33
2018-03-11T10:08:47.999Z,20.52
2018-03-11T10:09:48.014Z,21.03
2018-03-11T10:10:48.054Z,20.58
2018-03-11T10:11:48.094Z,20.27
2018-03-11T10:12:48.132Z,20.24
2018-03-11T10:13:48.143Z,19.74
2018-03-11T10:14:48.185Z,20.21
2018-03-11T10:15:48.228Z,20.64
2018-03-11T10:16:48.244Z,20.74
2018-03-11T10:17:48.278Z,20.56
2018-03-11T10:18:48.321Z,20.64
2018-03-11T10:19:48.363Z,20.73
2018-03-11T10:20:48.400Z,20.18
2018-03-11T10:21:48.460Z,20.60
2018-03-11T10:22:48.447Z,20.29
2018-03-11T10:23:48.489Z,21.28
2018-03-11T10:24:48.517Z,21.08
2018-03-11T10:25:48.568Z,20.70
2018-03-11T10:26:48.579Z,20.10
2018-03-11T10:27:48.614Z,19.94
2018-03-11T10:28:48.645Z,20.98
2018-03-11T10:29:48.692Z,21.30
2018-03-11T10:30:48.716Z,21.94
2018-03-11T10:31:48.753Z,21.10
2018-03-11T10:32:48.788Z,21.25
2018-03-11T10:33:48.824Z,20.93
2018-03-11T10:34:48.860Z,21.38
2018-03-11T10:35:48.903Z,21.44
2018-03-11T10:36:48.936Z,22.43
2018-03-11T10:37:49.027Z,23.70
2018-03-11T10:38:48.994Z,24.24
2018-03-11T10:39:49.030Z,22.30
2018-03-11T10:40:49.080Z,23.14
2018-03-11T10:41:49.112Z,24.86
2018-03-11T10:42:49.141Z,25.74
2018-03-11T10:43:49.175Z,24.97
2018-03-11T10:44:49.207Z,24.00
2018-03-11T10:45:49.243Z,22.63
2018-03-11T10:46:49.279Z,21.72
2018-03-11T10:47:49.313Z,20.27
2018-03-11T10:48:49.363Z,20.46
2018-03-11T10:49:49.455Z,20.71
2018-03-11T10:50:49.484Z,21.47
2018-03-11T10:51:49.454Z,22.95
2018-03-11T10:52:49.492Z,24.06
2018-03-11T10:53:49.534Z,23.17
2018-03-11T10:54:49.574Z,23.25
2018-03-11T10:55:49.598Z,23.64
2018-03-11T10:56:49.630Z,23.14
2018-03-11T10:57:49.665Z,24.21
2018-03-11T10:58:49.715Z,24.11
2018-03-11T10:59:49.764Z,23.81
2018-03-11T11:00:50.425Z,23.73
2018-03-11T11:01:49.847Z,23.76
2018-03-11T11:02:49.851Z,22.96
2018-03-11T11:03:49.883Z,22.81
2018-03-11T11:04:49.920Z,22.76
2018-03-11T11:05:49.963Z,22.49
2018-03-11T11:06:49.999Z,23.73
2018-03-11T11:07:50.027Z,25.26
2018-03-11T11:08:50.060Z,24.37
2018-03-11T11:09:50.115Z,25.95
2018-03-11T11:10:50.139Z,25.44
2018-03-11T11:11:50.175Z,25.73
2018-03-11T11:12:50.212Z,26.10
2018-03-11T11:13:50.241Z,26.45
2018-03-11T11:14:50.287Z,27.11
2018-03-11T11:15:50.319Z,27.41
2018-03-11T11:16:50.360Z,27.58
2018-03-11T11:17:50.393Z,26.46
2018-03-11T11:18:50.438Z,26.88
2018-03-11T11:19:50.462Z,27.25
2018-03-11T11:20:50.507Z,27.88
2018-03-11T11:21:50.616Z,25.33
2018-03-11T11:22:50.590Z,25.43
2018-03-11T11:23:50.623Z,26.98
2018-03-11T11:24:50.657Z,27.37
2018-03-11T11:25:50.683Z,27.28
2018-03-11T11:26:50.765Z,28.09
2018-03-11T11:27:50.763Z,26.85
2018-03-11T11:28:50.800Z,26.46
2018-03-11T11:29:50.845Z,26.08
2018-03-11T11:30:50.900Z,24.32
2018-03-11T11:31:50.907Z,23.59
2018-03-11T11:32:50.950Z,22.36
2018-03-11T11:33:51.003Z,21.07
2018-03-11T11:34:51.027Z,20.77
2018-03-11T11:35:51.059Z,20.73
2018-03-11T11:36:51.093Z,20.60
2018-03-11T11:37:51.128Z,19.89
2018-03-11T11:38:51.169Z,19.42
2018-03-11T11:39:51.193Z,19.19
2018-03-11T11:40:51.257Z,19.39
2018-03-11T11:41:51.270Z,19.57
2018-03-11T11:42:51.300Z,19.22
2018-03-11T11:43:51.343Z,18.68
2018-03-11T11:44:51.380Z,18.45
2018-03-11T11:45:51.419Z,18.37
2018-03-11T11:46:51.437Z,18.13
2018-03-11T11:47:51.481Z,18.05
2018-03-11T11:48:51.564Z,17.88
2018-03-11T11:49:51.567Z,17.88
2018-03-11T11:50:51.621Z,17.90
2018-03-11T11:51:51.602Z,17.52
2018-03-11T11:52:51.637Z,17.44
2018-03-11T11:53:51.673Z,17.24
2018-03-11T11:54:51.710Z,17.14
2018-03-11T11:55:51.745Z,17.16
2018-03-11T11:56:51.779Z,17.09
2018-03-11T11:57:51.817Z,16.94
2018-03-11T11:58:51.834Z,16.95
2018-03-11T11:59:51.872Z,16.99
2018-03-11T12:00:51.901Z,16.74
2018-03-11T12:01:51.938Z,16.58
2018-03-11T12:02:51.969Z,16.51
2018-03-11T12:03:52.025Z,16.68
2018-03-11T12:04:52.046Z,17.30
2018-03-11T12:05:52.067Z,17.91
2018-03-11T12:06:52.084Z,18.55
2018-03-11T12:07:52.114Z,19.00
2018-03-11T12:08:52.147Z,19.74
2018-03-11T12:09:52.197Z,19.99
2018-03-11T12:10:52.209Z,20.40
2018-03-11T12:11:52.240Z,20.17
2018-03-11T12:12:52.284Z,20.32
2018-03-11T12:13:52.307Z,21.10
2018-03-11T12:14:52.345Z,21.07
2018-03-11T12:15:52.372Z,20.85
2018-03-11T12:16:52.405Z,20.63
2018-03-11T12:17:52.455Z,20.37
2018-03-11T12:18:52.471Z,20.83
2018-03-11T12:19:52.527Z,21.44
2018-03-11T12:20:52.541Z,22.14
2018-03-11T12:21:52.577Z,21.54
2018-03-11T12:22:52.603Z,20.96
2018-03-11T12:23:53.472Z,20.66
2018-03-11T12:24:52.736Z,20.19
2018-03-11T12:25:52.707Z,19.82
2018-03-11T12:26:52.749Z,19.24
2018-03-11T12:27:52.784Z,19.16
2018-03-11T12:28:52.814Z,19.05
2018-03-11T12:29:52.869Z,18.57
2018-03-11T12:30:52.890Z,18.71
2018-03-11T12:31:52.910Z,19.00
2018-03-11T12:32:52.959Z,19.16
2018-03-11T12:33:52.978Z,19.23
2018-03-11T12:34:53.010Z,19.32
2018-03-11T12:35:53.051Z,19.26
2018-03-11T12:36:53.086Z,19.17
2018-03-11T12:37:53.104Z,19.01
2018-03-11T12:38:53.138Z,18.64
2018-03-11T12:39:53.163Z,18.78
2018-03-11T12:40:53.210Z,18.58
2018-03-11T12:41:53.233Z,18.60
2018-03-11T12:42:53.272Z,18.66
2018-03-11T12:43:53.294Z,18.63
2018-03-11T12:44:53.331Z,18.66
2018-03-11T12:45:53.371Z,18.66
2018-03-11T12:46:53.389Z,18.06
2018-03-11T12:47:53.419Z,17.88
2018-03-11T12:48:53.449Z,17.82
2018-03-11T12:49:53.478Z,17.86
2018-03-11T12:50:53.520Z,17.79
2018-03-11T12:51:53.543Z,17.57
2018-03-11T12:52:53.570Z,17.75
2018-03-11T12:53:53.606Z,17.52
2018-03-11T12:54:53.631Z,17.41
2018-03-11T12:55:53.663Z,17.65
2018-03-11T12:56:53.693Z,17.80
2018-03-11T12:57:53.727Z,17.84
2018-03-11T12:58:53.760Z,17.72
2018-03-11T12:59:53.792Z,17.59
2018-03-11T13:00:53.836Z,17.56
2018-03-11T13:01:54.472Z,17.46
2018-03-11T13:02:53.882Z,17.16
2018-03-11T13:03:53.920Z,16.97
2018-03-11T13:04:53.938Z,16.91
2018-03-11T13:05:53.974Z,16.89
2018-03-11T13:06:54.011Z,17.09
2018-03-11T13:07:54.029Z,17.02
2018-03-11T13:08:54.108Z,17.07